Time;durP1;ratioP1;P1;durP2;ratioP2;P2;SDS_P1;SDS_P2;PMS_P1;PMS_P2;Temp;Humidity;BMP_temperature;BMP_pressure;BME280_temperature;BME280_humidity;BME280_pressure;Samples;Min_cycle;Max_cycle;Signal;HPM_P1;HPM_P2
2023/11/28 00:01:36;;;;;;;6.40;4.78;;;-1.50;98.60;;;;;;5112898;28;20083;-80
2023/11/28 00:04:01;;;;;;;7.65;4.85;;;-1.50;98.90;;;;;;5112833;28;20060;-80
2023/11/28 00:06:27;;;;;;;7.10;5.22;;;-1.50;99.00;;;;;;5094464;28;20077;-80
2023/11/28 00:08:53;;;;;;;6.35;3.65;;;-1.50;99.10;;;;;;5112571;28;20047;-79
2023/11/28 00:11:20;;;;;;;5.90;3.85;;;-1.50;98.90;;;;;;5112458;28;20020;-80
2023/11/28 00:13:46;;;;;;;6.82;4.78;;;-1.50;99.00;;;;;;5112514;28;20094;-80
2023/11/28 00:16:12;;;;;;;6.57;4.10;;;-1.60;98.90;;;;;;5112213;28;20111;-81
2023/11/28 00:18:39;;;;;;;7.00;5.05;;;-1.60;99.00;;;;;;5095147;28;20085;-80
2023/11/28 00:21:05;;;;;;;6.22;4.35;;;-1.60;98.80;;;;;;5114644;28;20202;-80
2023/11/28 00:23:31;;;;;;;3.95;2.65;;;-1.60;99.00;;;;;;5112366;28;20023;-80
2023/11/28 00:25:57;;;;;;;7.15;4.47;;;-1.60;99.00;;;;;;5112706;28;20015;-80
2023/11/28 00:28:25;;;;;;;5.68;3.60;;;-1.60;98.90;;;;;;5111854;28;20024;-79
2023/11/28 00:30:54;;;;;;;6.55;4.93;;;-1.60;98.90;;;;;;5112920;28;20024;-80
2023/11/28 00:33:20;;;;;;;3.45;2.72;;;-1.50;99.10;;;;;;5101447;28;20384;-79
2023/11/28 00:35:46;;;;;;;4.15;2.65;;;-1.50;98.90;;;;;;5094690;28;20507;-80
2023/11/28 00:38:12;;;;;;;3.78;3.10;;;-1.60;98.80;;;;;;5112970;28;20035;-80
2023/11/28 00:40:40;;;;;;;6.38;3.17;;;-1.60;98.90;;;;;;5113710;28;20020;-79
2023/11/28 00:43:06;;;;;;;5.07;3.22;;;-1.70;99.30;;;;;;5105482;28;20031;-80
2023/11/28 00:45:32;;;;;;;6.70;3.85;;;-1.80;99.70;;;;;;5114625;28;20024;-80
2023/11/28 00:47:58;;;;;;;6.35;3.85;;;-1.80;99.90;;;;;;5115066;28;20045;-80
2023/11/28 00:50:23;;;;;;;7.38;4.30;;;-1.90;99.90;;;;;;5126968;28;20039;-81
2023/11/28 00:52:49;;;;;;;5.63;4.13;;;-1.90;99.90;;;;;;5123688;28;20038;-80
2023/11/28 00:55:16;;;;;;;7.25;4.85;;;-1.90;99.90;;;;;;5104506;28;20104;-81
2023/11/28 00:57:44;;;;;;;5.65;3.92;;;-1.90;99.90;;;;;;5108477;28;20032;-81
2023/11/28 01:00:11;;;;;;;6.90;5.13;;;-1.90;99.90;;;;;;5111857;28;20473;-78
2023/11/28 01:02:37;;;;;;;4.55;3.15;;;-1.80;99.90;;;;;;5112194;28;20023;-78
2023/11/28 01:05:13;;;;;;;5.32;3.47;;;-1.80;99.90;;;;;;5112115;28;20024;-79
2023/11/28 01:07:39;;;;;;;3.92;2.40;;;-1.80;99.80;;;;;;5098023;28;20020;-79
2023/11/28 01:10:06;;;;;;;9.25;4.10;;;-1.60;99.90;;;;;;5112396;28;20397;-79
2023/11/28 01:12:31;;;;;;;6.55;4.03;;;-1.60;99.80;;;;;;5112666;28;20027;-79
2023/11/28 01:14:57;;;;;;;7.30;3.58;;;-1.60;99.50;;;;;;5110400;28;20052;-77
2023/11/28 01:17:23;;;;;;;4.93;3.72;;;-1.70;99.10;;;;;;5097454;28;20032;-79
2023/11/28 01:19:49;;;;;;;5.47;4.03;;;-1.80;99.20;;;;;;5109546;28;20369;-78
2023/11/28 01:22:15;;;;;;;7.95;4.85;;;-1.80;99.50;;;;;;5116006;28;20024;-80
2023/11/28 01:24:41;;;;;;;5.90;3.92;;;-1.90;99.80;;;;;;5099289;28;20070;-79
2023/11/28 01:27:09;;;;;;;7.83;3.93;;;-1.90;99.90;;;;;;5112245;28;20039;-78
2023/11/28 01:29:35;;;;;;;7.50;3.30;;;-2.00;99.90;;;;;;5096208;28;20016;-79
2023/11/28 01:32:02;;;;;;;6.35;4.88;;;-2.00;99.90;;;;;;5109546;28;20090;-79
2023/11/28 01:34:28;;;;;;;;;;;-2.10;99.90;;;;;;5111853;28;20484;-79
2023/11/28 01:36:54;;;;;;;6.50;3.90;;;-2.10;99.90;;;;;;5117121;28;19916;-78
2023/11/28 01:39:20;;;;;;;5.72;3.83;;;-2.10;99.90;;;;;;5116374;28;20019;-79
2023/11/28 01:41:49;;;;;;;9.35;4.43;;;-2.10;99.90;;;;;;5115407;28;20107;-79
2023/11/28 01:44:15;;;;;;;5.70;3.60;;;-2.10;99.90;;;;;;5115379;28;20042;-79
2023/11/28 01:46:42;;;;;;;9.32;4.70;;;-2.00;99.90;;;;;;5115450;28;20020;-79
2023/11/28 01:49:09;;;;;;;9.15;4.88;;;-2.00;99.90;;;;;;5107289;28;20081;-80
2023/11/28 01:51:38;;;;;;;7.75;5.10;;;-1.90;99.90;;;;;;5090840;28;20519;-78
2023/11/28 01:54:07;;;;;;;5.93;3.28;;;-1.90;99.90;;;;;;5108416;28;20028;-80
2023/11/28 01:56:35;;;;;;;5.25;4.72;;;-1.90;99.90;;;;;;5094880;28;20077;-79
2023/11/28 01:59:03;;;;;;;2.38;2.17;;;-1.90;99.90;;;;;;5114737;28;20029;-79
2023/11/28 02:01:31;;;;;;;6.75;3.55;;;-1.90;99.50;;;;;;5103349;28;20017;-79
2023/11/28 02:03:57;;;;;;;;;;;-2.00;99.50;;;;;;5099208;28;20034;-79
2023/11/28 02:06:23;;;;;;;6.90;3.22;;;-2.00;99.60;;;;;;5119919;28;20000;-79
2023/11/28 02:08:48;;;;;;;7.35;4.20;;;-2.00;99.50;;;;;;5092292;28;20032;-79
2023/11/28 02:11:14;;;;;;;6.25;3.58;;;-2.00;99.30;;;;;;5122869;28;20076;-79
2023/11/28 02:13:40;;;;;;;5.55;4.30;;;-2.00;99.10;;;;;;5100795;28;20024;-80
2023/11/28 02:16:16;;;;;;;6.10;4.55;;;-2.00;99.30;;;;;;5100903;28;20026;-80
2023/11/28 02:18:42;;;;;;;7.07;3.65;;;-1.90;99.40;;;;;;5114887;28;20062;-80
2023/11/28 02:21:10;;;;;;;7.83;5.70;;;-2.00;99.30;;;;;;5115966;28;20024;-80
2023/11/28 02:23:37;;;;;;;8.55;4.28;;;-1.90;99.40;;;;;;5103924;28;20153;-79
2023/11/28 02:26:05;;;;;;;5.97;4.67;;;-2.00;99.30;;;;;;5119351;28;20039;-79
2023/11/28 02:28:31;;;;;;;5.85;3.17;;;-2.10;99.80;;;;;;5104054;28;20256;-78
2023/11/28 02:30:59;;;;;;;8.40;5.35;;;-2.10;99.90;;;;;;5119556;28;20104;-81
2023/11/28 02:33:25;;;;;;;5.38;3.92;;;-2.10;99.90;;;;;;5115248;28;20069;-80
2023/11/28 02:35:52;;;;;;;5.88;4.78;;;-2.10;99.90;;;;;;5114468;28;20102;-80
2023/11/28 02:38:18;;;;;;;3.65;2.80;;;-2.10;99.90;;;;;;5114303;28;20042;-80
2023/11/28 02:40:44;;;;;;;12.88;6.35;;;-2.20;99.90;;;;;;5113338;28;20023;-80
2023/11/28 02:43:10;;;;;;;10.27;5.55;;;-2.20;99.90;;;;;;5113150;28;20088;-80
2023/11/28 02:45:36;;;;;;;3.50;2.78;;;-2.20;99.90;;;;;;5114258;28;20020;-80
2023/11/28 02:48:02;;;;;;;5.03;3.90;;;-2.20;99.90;;;;;;5096358;28;20389;-80
2023/11/28 02:50:27;;;;;;;7.45;5.00;;;-2.20;99.90;;;;;;5114737;28;20027;-82
2023/11/28 02:52:54;;;;;;;10.65;6.38;;;-2.20;99.90;;;;;;5114601;28;20404;-79
2023/11/28 02:55:20;;;;;;;6.22;3.75;;;-2.20;99.90;;;;;;5096275;28;20542;-80
2023/11/28 02:57:46;;;;;;;7.03;5.72;;;-2.20;99.90;;;;;;5113348;28;20035;-81
2023/11/28 03:00:13;;;;;;;10.57;5.47;;;-2.30;99.90;;;;;;5095673;28;20019;-80
2023/11/28 03:02:39;;;;;;;5.13;3.72;;;-2.30;99.90;;;;;;5114365;28;20028;-78
2023/11/28 03:05:06;;;;;;;8.70;5.88;;;-2.30;99.90;;;;;;5095611;28;20023;-80
2023/11/28 03:07:32;;;;;;;7.03;5.30;;;-2.30;99.90;;;;;;5116466;28;20019;-80
2023/11/28 03:09:58;;;;;;;7.18;3.35;;;-2.30;99.90;;;;;;5116671;28;20496;-80
2023/11/28 03:12:24;;;;;;;8.73;5.13;;;-2.30;99.90;;;;;;5096375;28;20026;-80
2023/11/28 03:14:50;;;;;;;9.38;5.38;;;-2.30;99.90;;;;;;5113907;27;20023;-80
2023/11/28 03:17:16;;;;;;;9.65;5.00;;;-2.30;99.90;;;;;;5114751;28;20059;-80
2023/11/28 03:19:42;;;;;;;7.35;4.63;;;-2.20;99.90;;;;;;5114783;28;20019;-81
2023/11/28 03:22:07;;;;;;;5.57;4.00;;;-2.20;99.90;;;;;;5111900;28;20039;-79
2023/11/28 03:24:33;;;;;;;6.85;5.60;;;-2.20;99.90;;;;;;5098258;28;20012;-79
2023/11/28 03:26:59;;;;;;;8.00;5.47;;;-2.20;99.90;;;;;;5113854;28;20054;-80
2023/11/28 03:29:25;;;;;;;8.82;4.72;;;-2.20;99.90;;;;;;5113318;28;20032;-82
2023/11/28 03:31:51;;;;;;;9.43;5.72;;;-2.30;99.90;;;;;;5113337;28;20501;-78
2023/11/28 03:34:17;;;;;;;7.88;5.07;;;-2.30;99.90;;;;;;5113188;28;20048;-79
2023/11/28 03:36:43;;;;;;;8.30;5.72;;;-2.30;99.90;;;;;;5112906;28;20076;-79
2023/11/28 03:39:10;;;;;;;7.45;5.40;;;-2.30;99.90;;;;;;5113292;28;20024;-79
2023/11/28 03:41:35;;;;;;;6.32;4.30;;;-2.30;99.90;;;;;;5099178;28;20020;-79
2023/11/28 03:44:01;;;;;;;6.90;3.92;;;-2.30;99.90;;;;;;5117572;28;20116;-80
2023/11/28 03:46:27;;;;;;;7.30;3.47;;;-2.40;99.90;;;;;;5113323;28;20054;-79
2023/11/28 03:48:53;;;;;;;3.92;2.15;;;-2.50;99.90;;;;;;5112438;28;20027;-80
2023/11/28 03:51:19;;;;;;;6.85;4.72;;;-2.60;99.90;;;;;;5112706;28;20020;-79
2023/11/28 03:53:45;;;;;;;7.18;3.63;;;-2.60;99.90;;;;;;5101460;28;20038;-80
2023/11/28 03:56:11;;;;;;;5.35;3.83;;;-2.60;99.90;;;;;;5112896;28;20027;-80
2023/11/28 03:58:37;;;;;;;6.30;4.60;;;-2.70;99.90;;;;;;5112652;28;20704;-80
2023/11/28 04:01:04;;;;;;;6.30;3.80;;;-2.70;99.90;;;;;;5112825;28;20066;-80
2023/11/28 04:03:31;;;;;;;6.40;4.60;;;-2.80;99.90;;;;;;5093601;28;20491;-79
2023/11/28 04:05:57;;;;;;;8.07;3.83;;;-2.80;99.90;;;;;;5112873;28;20028;-80
2023/11/28 04:08:24;;;;;;;6.63;4.55;;;-2.80;99.90;;;;;;5112541;28;20035;-80
2023/11/28 04:10:50;;;;;;;7.50;4.67;;;-2.70;99.90;;;;;;5112651;28;20376;-79
2023/11/28 04:13:16;;;;;;;11.93;4.45;;;-2.80;99.90;;;;;;5112815;28;20035;-79
2023/11/28 04:15:42;;;;;;;7.78;4.47;;;-2.90;99.90;;;;;;5112547;28;20008;-78
2023/11/28 04:18:10;;;;;;;10.73;4.20;;;-2.90;99.90;;;;;;5094484;28;20051;-80
2023/11/28 04:20:36;;;;;;;6.35;4.43;;;-3.00;99.90;;;;;;5111034;28;20384;-80
2023/11/28 04:23:03;;;;;;;4.82;3.00;;;-3.10;99.90;;;;;;5112675;28;20083;-80
2023/11/28 04:25:29;;;;;;;7.13;4.50;;;-3.10;99.90;;;;;;5112596;28;20384;-80
2023/11/28 04:27:55;;;;;;;10.68;5.22;;;-3.20;99.90;;;;;;5098399;28;20030;-79
2023/11/28 04:30:20;;;;;;;9.73;5.03;;;-3.10;99.90;;;;;;5095592;28;20020;-78
2023/11/28 04:32:46;;;;;;;7.65;4.85;;;-3.10;99.90;;;;;;5115059;28;20047;-80
2023/11/28 04:35:12;;;;;;;6.55;3.75;;;-3.00;99.90;;;;;;5118270;28;20113;-79
2023/11/28 04:37:38;;;;;;;6.72;4.28;;;-3.00;99.90;;;;;;5112883;28;20111;-80
2023/11/28 04:40:04;;;;;;;5.80;4.28;;;-3.10;99.90;;;;;;5109658;28;20019;-80
2023/11/28 04:42:33;;;;;;;5.43;3.50;;;-3.20;99.90;;;;;;5116442;28;20197;-80
2023/11/28 04:44:59;;;;;;;7.53;3.55;;;-3.20;99.90;;;;;;5112303;28;20082;-79
2023/11/28 04:47:25;;;;;;;8.07;4.40;;;-3.10;99.90;;;;;;5113132;28;20228;-80
2023/11/28 04:49:52;;;;;;;3.08;2.58;;;-3.10;99.90;;;;;;5116019;28;20028;-80
2023/11/28 04:52:18;;;;;;;6.97;3.90;;;-3.20;99.90;;;;;;5117093;28;20024;-79
2023/11/28 04:54:44;;;;;;;8.65;5.20;;;-3.20;99.90;;;;;;5125677;28;20384;-80
2023/11/28 04:57:09;;;;;;;6.75;4.20;;;-3.20;99.90;;;;;;5127154;28;20032;-80
2023/11/28 04:59:35;;;;;;;7.25;4.13;;;-3.20;99.90;;;;;;5120994;28;20533;-80
2023/11/28 05:02:01;;;;;;;7.22;6.13;;;-3.20;99.90;;;;;;5094320;28;20016;-80
2023/11/28 05:04:27;;;;;;;8.90;5.32;;;-3.20;99.90;;;;;;5115073;28;20066;-79
2023/11/28 05:06:53;;;;;;;10.10;5.45;;;-3.10;99.90;;;;;;5116228;28;20115;-80
2023/11/28 05:09:20;;;;;;;8.63;5.45;;;-3.10;99.90;;;;;;5116791;28;20017;-82
2023/11/28 05:11:46;;;;;;;8.95;4.72;;;-3.10;99.90;;;;;;5116247;28;20020;-80
2023/11/28 05:14:12;;;;;;;7.95;5.13;;;-3.00;99.90;;;;;;5116898;28;20094;-80
2023/11/28 05:16:38;;;;;;;7.20;4.85;;;-3.00;99.90;;;;;;5102699;28;20051;-80
2023/11/28 05:19:05;;;;;;;7.00;4.30;;;-3.00;99.90;;;;;;5103625;28;20366;-80
2023/11/28 05:21:31;;;;;;;6.68;4.60;;;-2.90;99.90;;;;;;5096943;28;20476;-80
2023/11/28 05:23:57;;;;;;;9.02;4.75;;;-3.00;99.90;;;;;;5101676;28;20033;-79
2023/11/28 05:26:23;;;;;;;6.80;4.32;;;-3.00;99.90;;;;;;5110647;28;20392;-80
2023/11/28 05:28:50;;;;;;;8.25;5.20;;;-3.10;99.90;;;;;;5106373;28;20023;-78
2023/11/28 05:31:17;;;;;;;9.55;5.38;;;-3.10;99.90;;;;;;5116894;28;20035;-79
2023/11/28 05:33:42;;;;;;;6.82;4.70;;;-3.00;99.90;;;;;;5115855;28;20027;-79
2023/11/28 05:36:09;;;;;;;5.47;4.00;;;-3.00;99.90;;;;;;5115386;28;20027;-79
2023/11/28 05:38:35;;;;;;;5.43;4.03;;;-3.00;99.90;;;;;;5116314;28;20036;-80
2023/11/28 05:41:01;;;;;;;9.70;5.55;;;-3.10;99.90;;;;;;5112096;28;20008;-80
2023/11/28 05:43:29;;;;;;;7.18;4.50;;;-3.20;99.90;;;;;;5115377;28;20400;-80
2023/11/28 05:45:56;;;;;;;6.38;4.22;;;-3.20;99.90;;;;;;5114515;28;20031;-81
2023/11/28 05:48:22;;;;;;;6.00;3.85;;;-3.20;99.90;;;;;;5097108;28;20082;-79
2023/11/28 05:50:47;;;;;;;8.55;4.65;;;-3.20;99.90;;;;;;5110231;28;20048;-79
2023/11/28 05:53:14;;;;;;;10.55;5.03;;;-3.10;99.90;;;;;;5115445;28;20430;-80
2023/11/28 05:55:40;;;;;;;9.13;4.63;;;-3.10;99.90;;;;;;5115975;28;20022;-78
2023/11/28 05:58:06;;;;;;;7.65;5.63;;;-3.10;99.90;;;;;;5115786;28;20032;-80
2023/11/28 06:00:34;;;;;;;5.57;4.90;;;-3.00;99.90;;;;;;5111930;28;20044;-80
2023/11/28 06:03:00;;;;;;;6.72;4.13;;;-3.00;99.90;;;;;;5110953;28;20031;-80
2023/11/28 06:05:26;;;;;;;5.57;4.25;;;-2.90;99.90;;;;;;5123135;28;20020;-80
2023/11/28 06:07:52;;;;;;;6.43;4.47;;;-2.90;99.90;;;;;;5122325;28;20051;-77
2023/11/28 06:10:18;;;;;;;6.35;3.80;;;-3.00;99.90;;;;;;5121038;28;20016;-80
2023/11/28 06:12:44;;;;;;;8.63;4.32;;;-2.90;99.90;;;;;;5115618;28;20070;-80
2023/11/28 06:15:10;;;;;;;11.98;4.47;;;-3.00;99.90;;;;;;5115056;28;20019;-80
2023/11/28 06:17:36;;;;;;;6.60;4.50;;;-3.00;99.90;;;;;;5096250;28;20548;-81
2023/11/28 06:20:04;;;;;;;8.30;5.53;;;-3.00;99.90;;;;;;5107798;28;20450;-81
2023/11/28 06:22:30;;;;;;;6.00;4.32;;;-3.00;99.90;;;;;;5095009;28;20034;-81
2023/11/28 06:24:59;;;;;;;9.70;4.67;;;-2.90;99.90;;;;;;5114634;28;20043;-82
2023/11/28 06:27:26;;;;;;;6.88;4.70;;;-2.90;99.90;;;;;;5114428;28;20264;-81
2023/11/28 06:29:52;;;;;;;6.03;4.60;;;-2.90;99.90;;;;;;5096462;28;20027;-78
2023/11/28 06:32:18;;;;;;;7.18;5.40;;;-2.90;99.90;;;;;;5114985;28;20392;-78
2023/11/28 06:34:46;;;;;;;6.47;3.78;;;-2.80;99.90;;;;;;5114435;28;20012;-81
2023/11/28 06:37:15;;;;;;;7.95;4.38;;;-2.90;99.90;;;;;;5114800;28;20728;-79
2023/11/28 06:39:41;;;;;;;5.43;4.57;;;-2.90;99.90;;;;;;5095363;28;20023;-79
2023/11/28 06:42:07;;;;;;;6.80;4.72;;;-2.90;99.90;;;;;;5114804;28;20496;-80
2023/11/28 06:44:35;;;;;;;7.70;5.32;;;-2.90;99.90;;;;;;5112903;28;20041;-81
2023/11/28 06:47:02;;;;;;;11.43;4.82;;;-3.00;99.90;;;;;;5101833;28;20020;-80
2023/11/28 06:49:28;;;;;;;6.70;3.80;;;-3.00;99.90;;;;;;5115585;28;20411;-80
2023/11/28 06:51:54;;;;;;;5.10;3.30;;;-3.00;99.90;;;;;;5120519;28;20030;-80
2023/11/28 06:54:20;;;;;;;7.35;3.92;;;-3.00;99.90;;;;;;5113276;28;20392;-80
2023/11/28 06:56:46;;;;;;;7.00;4.43;;;-3.10;99.90;;;;;;5095512;28;20172;-80
2023/11/28 06:59:12;;;;;;;8.55;4.82;;;-3.10;99.90;;;;;;5115772;28;20020;-80
2023/11/28 07:01:41;;;;;;;6.07;4.07;;;-3.10;99.90;;;;;;5117534;28;20062;-80
2023/11/28 07:04:07;;;;;;;5.80;4.35;;;-3.00;99.90;;;;;;5117549;28;20030;-81
2023/11/28 07:06:32;;;;;;;11.52;4.72;;;-3.10;99.90;;;;;;5114918;28;20114;-81
2023/11/28 07:08:59;;;;;;;6.82;4.75;;;-3.10;99.90;;;;;;5114289;28;20016;-82
2023/11/28 07:11:25;;;;;;;10.27;4.47;;;-3.10;99.90;;;;;;5114269;28;20045;-82
2023/11/28 07:13:51;;;;;;;8.52;4.55;;;-3.10;99.90;;;;;;5112926;28;20072;-80
2023/11/28 07:16:17;;;;;;;8.65;4.80;;;-3.10;99.90;;;;;;5102827;28;20028;-81
2023/11/28 07:18:44;;;;;;;8.77;5.17;;;-3.10;99.90;;;;;;5109944;28;20031;-80
2023/11/28 07:21:11;;;;;;;11.75;4.35;;;-3.00;99.90;;;;;;5102511;28;20021;-81
2023/11/28 07:23:38;;;;;;;9.93;5.82;;;-3.00;99.90;;;;;;5102787;28;20032;-80
2023/11/28 07:26:05;;;;;;;9.20;5.28;;;-3.20;99.90;;;;;;5111462;28;20012;-81
2023/11/28 07:28:31;;;;;;;5.85;3.60;;;-3.30;99.90;;;;;;5106731;28;20056;-82
2023/11/28 07:30:57;;;;;;;6.30;3.55;;;-3.40;99.90;;;;;;5110531;28;20039;-82
2023/11/28 07:33:23;;;;;;;3.65;2.72;;;-3.40;99.90;;;;;;5108686;28;20050;-81
2023/11/28 07:35:49;;;;;;;5.32;3.80;;;-3.40;99.90;;;;;;5113046;28;20019;-79
2023/11/28 07:38:15;;;;;;;7.47;5.40;;;-3.50;99.90;;;;;;5113944;28;20036;-80
2023/11/28 07:40:41;;;;;;;5.43;3.90;;;-3.50;99.90;;;;;;5114145;28;20016;-80
2023/11/28 07:43:08;;;;;;;6.15;4.28;;;-3.40;99.90;;;;;;5113336;28;20016;-80
2023/11/28 07:45:35;;;;;;;7.38;3.80;;;-3.30;99.90;;;;;;5113897;28;20127;-81
2023/11/28 07:48:04;;;;;;;8.88;5.20;;;-3.20;99.90;;;;;;5108696;28;20024;-80
2023/11/28 07:50:30;;;;;;;6.18;4.45;;;-3.30;99.90;;;;;;5113785;28;20034;-80
2023/11/28 07:52:57;;;;;;;8.65;5.13;;;-3.30;99.90;;;;;;5105650;28;20028;-80
2023/11/28 07:55:22;;;;;;;7.73;3.93;;;-3.30;99.90;;;;;;5095975;28;20024;-79
2023/11/28 07:57:48;;;;;;;6.93;4.93;;;-3.30;99.90;;;;;;5118547;28;20326;-81
2023/11/28 08:00:14;;;;;;;12.40;5.32;;;-3.30;99.90;;;;;;5116024;28;20019;-82
2023/11/28 08:02:41;;;;;;;10.55;5.30;;;-3.30;99.90;;;;;;5125038;28;20035;-80
2023/11/28 08:05:07;;;;;;;6.35;4.82;;;-3.30;99.90;;;;;;5111436;28;20020;-81
2023/11/28 08:07:33;;;;;;;8.60;5.78;;;-3.30;99.90;;;;;;5101745;28;20036;-80
2023/11/28 08:10:02;;;;;;;5.90;4.22;;;-3.30;99.90;;;;;;5113564;28;20016;-80
2023/11/28 08:12:28;;;;;;;7.35;4.95;;;-3.30;99.90;;;;;;5085135;28;20038;-79
2023/11/28 08:14:57;;;;;;;10.00;5.03;;;-3.30;99.90;;;;;;5096253;28;20043;-79
2023/11/28 08:17:23;;;;;;;9.48;5.50;;;-3.30;99.90;;;;;;5125275;28;20507;-81
2023/11/28 08:19:50;;;;;;;8.75;5.40;;;-3.30;99.90;;;;;;5107571;28;20060;-82
2023/11/28 08:22:17;;;;;;;6.15;4.35;;;-3.20;99.90;;;;;;5088628;28;20038;-82
2023/11/28 08:24:43;;;;;;;7.00;4.35;;;-3.10;99.90;;;;;;5116148;28;20023;-83
2023/11/28 08:27:09;;;;;;;10.43;5.30;;;-3.10;99.90;;;;;;5112350;28;20020;-84
2023/11/28 08:29:35;;;;;;;10.90;6.47;;;-3.10;99.90;;;;;;5093260;28;20019;-82
2023/11/28 08:32:01;;;;;;;9.00;6.43;;;-3.10;99.90;;;;;;5104324;28;20073;-83
2023/11/28 08:34:27;;;;;;;8.45;5.32;;;-3.10;99.90;;;;;;5093972;28;20053;-84
2023/11/28 08:36:53;;;;;;;8.77;4.30;;;-3.10;99.90;;;;;;5077858;28;20040;-83
2023/11/28 08:39:19;;;;;;;7.95;5.60;;;-3.10;99.90;;;;;;5102624;28;20051;-83
2023/11/28 08:41:45;;;;;;;5.53;3.70;;;-3.10;99.90;;;;;;5099532;28;20028;-83
2023/11/28 08:44:11;;;;;;;7.13;4.47;;;-3.10;99.90;;;;;;5110142;28;20078;-83
2023/11/28 08:46:37;;;;;;;7.22;3.97;;;-3.10;99.90;;;;;;5099075;28;20104;-84
2023/11/28 08:49:06;;;;;;;9.40;5.63;;;-3.10;99.90;;;;;;5117427;28;20041;-83
2023/11/28 08:51:32;;;;;;;11.60;5.97;;;-3.20;99.90;;;;;;5086263;28;20024;-83
2023/11/28 08:53:58;;;;;;;5.78;4.38;;;-3.10;99.90;;;;;;5116524;28;20384;-82
2023/11/28 08:56:24;;;;;;;8.00;4.35;;;-3.10;99.90;;;;;;5107881;28;20028;-82
2023/11/28 08:58:50;;;;;;;7.95;4.13;;;-3.20;99.90;;;;;;5110149;28;20028;-82
2023/11/28 09:01:16;;;;;;;7.32;3.97;;;-3.20;99.90;;;;;;5104738;28;20028;-82
2023/11/28 09:03:42;;;;;;;8.48;5.05;;;-3.20;99.90;;;;;;5089697;28;20853;-85
2023/11/28 09:06:08;;;;;;;7.63;4.30;;;-3.10;99.90;;;;;;5108436;28;20087;-83
2023/11/28 09:08:35;;;;;;;7.57;4.13;;;-3.00;99.90;;;;;;5095378;28;20027;-83
2023/11/28 09:11:02;;;;;;;7.95;5.00;;;-3.00;99.90;;;;;;5107453;28;20118;-84
2023/11/28 09:13:29;;;;;;;8.23;5.30;;;-3.00;99.90;;;;;;5106785;28;20139;-82
2023/11/28 09:15:55;;;;;;;7.28;4.07;;;-2.80;99.90;;;;;;5116771;28;20020;-85
2023/11/28 09:18:21;;;;;;;7.00;4.70;;;-2.70;99.90;;;;;;5117696;28;20059;-82
2023/11/28 09:20:47;;;;;;;7.43;5.07;;;-2.80;99.90;;;;;;5113991;28;20477;-84
2023/11/28 09:23:14;;;;;;;7.97;5.38;;;-2.80;99.90;;;;;;5103345;28;20020;-82
2023/11/28 09:25:40;;;;;;;6.57;4.55;;;-2.80;99.90;;;;;;5109895;28;20024;-82
2023/11/28 09:28:05;;;;;;;14.10;5.90;;;-2.80;99.90;;;;;;5117363;28;20499;-85
2023/11/28 09:30:32;;;;;;;9.18;5.53;;;-2.80;99.90;;;;;;5110297;28;20107;-85
2023/11/28 09:32:58;;;;;;;11.90;5.13;;;-2.70;99.90;;;;;;5115881;27;20031;-84
2023/11/28 09:35:24;;;;;;;5.53;3.08;;;-2.70;99.90;;;;;;5112174;28;20259;-81
2023/11/28 09:37:51;;;;;;;7.78;5.18;;;-2.80;99.90;;;;;;5111853;28;20032;-81
2023/11/28 09:40:17;;;;;;;8.07;5.05;;;-2.90;99.90;;;;;;5116298;28;20468;-83
2023/11/28 09:42:43;;;;;;;8.38;4.80;;;-2.90;99.90;;;;;;5097533;28;20038;-82
2023/11/28 09:45:12;;;;;;;7.03;4.38;;;-2.90;99.90;;;;;;5115617;28;20066;-84
2023/11/28 09:47:40;;;;;;;7.85;5.85;;;-2.90;99.90;;;;;;5111192;28;20107;-82
2023/11/28 09:50:12;;;;;;;6.43;4.57;;;-2.80;99.90;;;;;;5096185;28;20023;-82
2023/11/28 09:52:42;;;;;;;6.25;3.60;;;-2.80;99.90;;;;;;5115261;28;20032;-83
2023/11/28 09:55:09;;;;;;;6.07;4.35;;;-2.80;99.90;;;;;;5117808;28;20392;-85
2023/11/28 09:57:41;;;;;;;10.10;5.30;;;-2.90;99.90;;;;;;5127804;28;20166;-82
2023/11/28 10:00:11;;;;;;;8.02;4.47;;;-2.90;99.90;;;;;;5118756;28;20011;-82
2023/11/28 10:02:37;;;;;;;6.80;4.55;;;-2.90;99.90;;;;;;5115635;28;20024;-81
2023/11/28 10:05:04;;;;;;;7.32;3.97;;;-2.90;99.90;;;;;;5115087;28;20094;-80
2023/11/28 10:07:35;;;;;;;10.73;6.07;;;-2.90;99.90;;;;;;5114676;28;20114;-81
2023/11/28 10:10:10;;;;;;;9.60;6.22;;;-2.90;99.90;;;;;;5114853;28;20015;-83
2023/11/28 10:12:39;;;;;;;8.52;5.20;;;-2.80;99.90;;;;;;5114854;28;20433;-80
2023/11/28 10:15:08;;;;;;;6.00;4.40;;;-2.70;99.90;;;;;;5114634;28;20064;-81
2023/11/28 10:17:37;;;;;;;11.25;6.35;;;-2.70;99.90;;;;;;5114478;28;20028;-83
2023/11/28 10:20:06;;;;;;;11.30;3.72;;;-2.80;99.90;;;;;;5114653;28;20023;-80
2023/11/28 10:22:37;;;;;;;10.77;6.68;;;-2.70;99.90;;;;;;5112819;28;20038;-81
2023/11/28 10:25:11;;;;;;;8.10;5.20;;;-2.70;99.90;;;;;;5102549;28;20303;-80
2023/11/28 10:27:41;;;;;;;8.13;5.38;;;-2.70;99.90;;;;;;5101912;28;20028;-82
2023/11/28 10:30:11;;;;;;;8.25;4.70;;;-2.70;99.90;;;;;;5115290;28;20099;-84
2023/11/28 10:32:37;;;;;;;9.45;5.30;;;-2.70;99.90;;;;;;5112909;28;20052;-81
2023/11/28 10:35:05;;;;;;;10.27;5.20;;;-2.70;99.90;;;;;;5082913;28;20024;-83
2023/11/28 10:37:35;;;;;;;9.10;5.28;;;-2.70;99.90;;;;;;5096453;28;20036;-84
2023/11/28 10:40:07;;;;;;;7.97;4.38;;;-2.60;99.90;;;;;;5114360;28;20389;-84
2023/11/28 10:42:33;;;;;;;8.07;4.80;;;-2.60;99.90;;;;;;5114886;28;20038;-81
2023/11/28 10:45:00;;;;;;;9.15;5.00;;;-2.60;99.90;;;;;;5113938;28;20039;-84
2023/11/28 10:47:29;;;;;;;8.97;5.60;;;-2.60;99.90;;;;;;5108040;28;20028;-81
2023/11/28 10:49:56;;;;;;;13.15;5.35;;;-2.70;99.90;;;;;;5109054;28;20039;-83
2023/11/28 10:52:27;;;;;;;7.47;5.15;;;-2.80;99.90;;;;;;5095034;28;20019;-83
2023/11/28 10:55:00;;;;;;;7.72;5.90;;;-2.90;99.90;;;;;;5098808;28;20074;-81
2023/11/28 10:57:28;;;;;;;8.05;5.88;;;-2.70;99.90;;;;;;5110127;28;20114;-82
2023/11/28 11:00:01;;;;;;;10.52;6.53;;;-2.70;99.90;;;;;;5118314;28;20024;-83
2023/11/28 11:02:29;;;;;;;11.20;4.70;;;-2.60;99.90;;;;;;5119750;28;20115;-82
2023/11/28 11:04:54;;;;;;;;;;;-2.70;99.90;;;;;;5116436;28;20136;-82
2023/11/28 11:07:21;;;;;;;7.05;4.70;;;-2.80;99.90;;;;;;5115486;28;19943;-82
2023/11/28 11:09:48;;;;;;;8.38;5.05;;;-2.70;99.90;;;;;;5115820;28;20098;-81
2023/11/28 11:12:15;;;;;;;9.37;5.13;;;-2.60;99.90;;;;;;5103207;28;20016;-80
2023/11/28 11:14:54;;;;;;;9.70;5.95;;;-2.70;99.90;;;;;;5115274;28;20019;-82
2023/11/28 11:17:43;;;;;;;13.30;7.45;;;-2.70;99.90;;;;;;5111370;28;20039;-82
2023/11/28 11:20:11;;;;;;;9.73;5.78;;;-2.70;99.90;;;;;;5113474;28;20065;-81
2023/11/28 11:22:51;;;;;;;8.80;4.80;;;-2.60;99.90;;;;;;5107824;28;20026;-83
2023/11/28 11:25:37;;;;;;;6.07;3.17;;;-2.70;99.90;;;;;;5096843;28;20065;-82
2023/11/28 11:28:07;;;;;;;7.32;4.45;;;-2.70;99.90;;;;;;5118919;28;20433;-81
2023/11/28 11:30:42;;;;;;;10.68;5.40;;;-2.80;99.90;;;;;;5133523;28;20030;-82
2023/11/28 11:33:11;;;;;;;6.70;4.47;;;-2.80;99.90;;;;;;5125609;28;20022;-81
2023/11/28 11:36:07;;;;;;;8.50;4.10;;;-2.70;99.90;;;;;;5122367;28;20399;-79
2023/11/28 11:38:35;;;;;;;6.90;4.68;;;-2.70;99.90;;;;;;5112800;28;20039;-84
2023/11/28 11:41:02;;;;;;;;;;;-2.80;99.50;;;;;;5116443;28;20016;-83
2023/11/28 11:43:28;;;;;;;;;;;-2.90;99.00;;;;;;5115611;28;19955;-82
2023/11/28 11:46:05;;;;;;;5.97;3.92;;;-2.90;99.20;;;;;;5096057;28;20014;-84
2023/11/28 11:48:32;;;;;;;4.88;3.03;;;-2.90;99.20;;;;;;5114326;28;20354;-86
2023/11/28 11:51:00;;;;;;;7.20;4.00;;;-2.90;99.30;;;;;;5097189;28;20056;-85
2023/11/28 11:53:29;;;;;;;5.80;3.60;;;-2.80;99.50;;;;;;5098891;28;20024;-82
2023/11/28 11:56:01;;;;;;;6.97;5.10;;;-2.90;98.90;;;;;;5113426;28;20444;-82
2023/11/28 11:58:29;;;;;;;9.50;4.97;;;-2.90;99.20;;;;;;5115402;28;20078;-83
2023/11/28 12:00:55;;;;;;;6.43;4.50;;;-2.80;99.30;;;;;;5114766;28;20468;-82
2023/11/28 12:03:22;;;;;;;10.93;5.68;;;-2.80;99.10;;;;;;5099151;28;20059;-85
2023/11/28 12:05:57;;;;;;;5.00;3.25;;;-2.80;98.60;;;;;;5106763;28;20039;-84
2023/11/28 12:08:24;;;;;;;7.40;4.90;;;-2.70;98.70;;;;;;5107163;28;20074;-87
2023/11/28 12:11:06;;;;;;;6.78;4.28;;;-2.80;98.60;;;;;;5097865;28;20378;-85
2023/11/28 12:13:32;;;;;;;4.60;3.28;;;-2.80;98.50;;;;;;5110940;28;20070;-84
2023/11/28 12:16:02;;;;;;;6.57;4.20;;;-2.80;98.60;;;;;;5119655;28;20027;-85
2023/11/28 12:18:29;;;;;;;9.50;5.00;;;-2.90;98.60;;;;;;5097773;28;20035;-85
2023/11/28 12:20:55;;;;;;;19.55;7.93;;;-2.90;98.60;;;;;;5105200;28;20030;-84
2023/11/28 12:23:22;;;;;;;14.57;5.40;;;-3.00;98.30;;;;;;5085861;28;20028;-85
2023/11/28 12:25:48;;;;;;;6.67;4.33;;;-3.00;98.30;;;;;;5109705;28;20023;-87
2023/11/28 12:28:14;;;;;;;9.20;3.45;;;-3.10;98.50;;;;;;5115808;28;20053;-90
2023/11/28 12:30:40;;;;;;;5.60;3.40;;;-3.10;98.60;;;;;;5117220;28;20527;-84
2023/11/28 12:33:06;;;;;;;7.93;4.30;;;-3.20;98.10;;;;;;5100094;28;20022;-84
2023/11/28 12:35:32;;;;;;;7.45;4.60;;;-3.30;97.50;;;;;;5115983;28;20027;-89
2023/11/28 12:37:58;;;;;;;8.75;5.20;;;-3.40;98.00;;;;;;5099242;28;20038;-88
2023/11/28 12:40:24;;;;;;;12.10;5.35;;;-3.30;98.10;;;;;;5106611;28;20040;-86
2023/11/28 12:42:50;;;;;;;9.43;5.57;;;-3.40;98.10;;;;;;5109468;28;20020;-85
2023/11/28 12:45:25;;;;;;;7.05;4.82;;;-3.40;98.10;;;;;;5096272;28;20067;-86
2023/11/28 12:47:50;;;;;;;5.10;4.18;;;-3.40;98.40;;;;;;5100011;28;20068;-87